nws-alerts: Checking more than four warning/county codes can delay the loading of your pages. You should use a cron job to get the data.

Nearby METAR Reports

 

KFCI - Richmond/Chester, Virginia, USA
Distance from station: ESE 7mi, 11km
Updated: Sat, 20-Apr-2024 9:56pm EDT
Clear
Clear
 Wind from WNW
Wind: WNW 3 mph , 6 km/h
Temperature: 55°F , 13°C
Dew Point: 48°F , 9°C
Humidity: 77%
Barometer: 29.94 inHg , 1013.9 hPa
Clouds: Clear
Visibility: 10 miles , 16 km
2024/04/21 01:56 KFCI 210156Z AUTO 29003KT 10SM CLR 13/09 A2994 RMK AO2 SLP150 T01280089
KRIC - Richmond, Virginia, USA
Distance from station: ENE 19mi, 30km
Updated: Sat, 20-Apr-2024 9:54pm EDT
Few Clouds
Few Clouds
 Wind from SE
Wind: SE 3 mph , 6 km/h
Temperature: 61°F , 16°C
Dew Point: 54°F , 12°C
Humidity: 77%
Barometer: 29.94 inHg , 1013.9 hPa
Clouds: Few Clouds
Visibility: 10 miles , 16 km
Cloud details: Few Clouds 25000 ft
2024/04/21 01:54 KRIC 210154Z 13003KT 10SM FEW250 16/12 A2994 RMK AO2 SLP144 T01610117
 
KPTB - Petersburg, Virginia, USA
Distance from station: SSE 19mi, 31km
Updated: Sat, 20-Apr-2024 9:55pm EDT
Clear
Clear
 Wind from calm
Wind: Calm
Temperature: 54°F , 12°C
Dew Point: 50°F , 10°C
Humidity: 88%
Barometer: 29.95 inHg , 1014.2 hPa
Clouds: Clear
Visibility: 10 miles , 16 km
2024/04/21 01:55 KPTB 210155Z AUTO 00000KT 10SM CLR 12/10 A2995 RMK AO2 T01180104
KOFP - Richmond/Hanover, Virginia, USA
Distance from station: NNE 22mi, 36km
Updated: Sat, 20-Apr-2024 9:54pm EDT
Clear
Clear
 Wind from calm
Wind: Calm
Temperature: 57°F , 14°C
Dew Point: 52°F , 11°C
Humidity: 82%
Barometer: 29.96 inHg , 1014.6 hPa
Clouds: Clear
Visibility: 10 miles , 16 km
2024/04/21 01:54 KOFP 210154Z AUTO 00000KT 10SM CLR 14/11 A2996 RMK AO2 SLP143 T01440106
 
KW96 - Quinton, Virginia, USA
Distance from station: E 28mi, 46km
Updated: Sat, 20-Apr-2024 9:55pm EDT
Clear
Clear
 Wind from calm
Wind: Calm
Temperature: 61°F , 16°C
Dew Point: 55°F , 13°C
Humidity: 83%
Barometer: 29.94 inHg , 1013.9 hPa
Clouds: Clear
Visibility: 10 miles , 16 km
2024/04/21 01:55 KW96 210155Z AUTO 00000KT 10SM CLR 16/13 A2994 RMK AO1 T01550131
KBKT - Blackstone Army, Virginia, USA
Distance from station: SW 30mi, 48km
Updated: Sat, 20-Apr-2024 9:55pm EDT
Clear
Clear
 Wind from WNW
Wind: WNW 3 mph , 6 km/h
Temperature: 59°F , 15°C
Dew Point: 43°F , 6°C
Humidity: 55%
Barometer: 29.96 inHg , 1014.6 hPa
Clouds: Clear
Visibility: 10 miles , 16 km
2024/04/21 01:55 KBKT 210155Z AUTO 30003KT 10SM CLR 15/06 A2996 RMK AO1 T01460058
 
KW81 - Crewe, Virginia, USA
Distance from station: SW 30mi, 49km
Updated: Sat, 20-Apr-2024 9:55pm EDT
Clear
Clear
 Wind from calm
Wind: Calm
Temperature: 54°F , 12°C
Dew Point: 43°F , 6°C
Humidity: 67%
Barometer: 29.96 inHg , 1014.6 hPa
Clouds: Clear
Visibility: 10 miles , 16 km
2024/04/21 01:55 KW81 210155Z AUTO 00000KT 10SM CLR 12/06 A2996 RMK AO1 T01180063
K7W4 - Bumpass, Virginia, USA
Distance from station: N 38mi, 61km
Updated: Sat, 20-Apr-2024 9:55pm EDT
Clear
Clear
 Wind from calm
Wind: Calm
Temperature: 55°F , 13°C
Dew Point: 50°F , 10°C
Humidity: 82%
Barometer: 29.97 inHg , 1014.9 hPa
Clouds: Clear
Visibility: 10 miles , 16 km
2024/04/21 01:55 K7W4 210155Z AUTO 00000KT 10SM CLR 13/10 A2997 RMK AO1 T01320095
 
KFVX - Farmville, Virginia, USA
Distance from station: W 43mi, 69km
Updated: Sat, 20-Apr-2024 9:55pm EDT
Clear
Clear
 Wind from calm
Wind: Calm
Temperature: 55°F , 13°C
Dew Point: 36°F , 2°C
Humidity: 47%
Barometer: 29.95 inHg , 1014.2 hPa
Clouds: Clear
Visibility: 10 miles , 16 km
2024/04/21 01:55 KFVX 210155Z AUTO 00000KT 10SM CLR 13/02 A2995 RMK AO2 LTG DSNT W T01330024
KW31 - Kenbridge, Virginia, USA
Distance from station: SW 43mi, 70km
Updated: Sat, 20-Apr-2024 9:55pm EDT
Clear
Clear
 Wind from NW
Wind: NW 3 mph , 6 km/h
Temperature: 61°F , 16°C
Dew Point: 43°F , 6°C
Humidity: 52%
Barometer: 29.97 inHg , 1014.9 hPa
Clouds: Clear
Visibility: 10 miles , 16 km
2024/04/21 01:55 KW31 210155Z AUTO 31003KT 10SM CLR 16/06 A2997 RMK AO1 T01580062
 
KLKU - Louisa, Virginia, USA
Distance from station: NNW 44mi, 72km
Updated: Sat, 20-Apr-2024 9:55pm EDT
Clear
Clear
 Wind from NNE
Wind: NNE 3 mph , 6 km/h
Temperature: 57°F , 14°C
Dew Point: 36°F , 2°C
Humidity: 44%
Barometer: 29.96 inHg , 1014.6 hPa
Clouds: Clear
Visibility: 10 miles , 16 km
2024/04/21 01:55 KLKU 210155Z AUTO 02003KT 10SM CLR 14/02 A2996 RMK AO2 T01370024
KLVL - Lawrenceville, Virginia, USA
Distance from station: S 46mi, 75km
Updated: Sat, 20-Apr-2024 9:55pm EDT
Clear
Clear
 Wind from calm
Wind: Calm
Temperature: 57°F , 14°C
Dew Point: 52°F , 11°C
Humidity: 82%
Barometer: 29.96 inHg , 1014.6 hPa
Clouds: Clear
2024/04/21 01:55 KLVL 210155Z AUTO 00000KT CLR 14/11 A2996 RMK AO1 T01410105
 
KAKQ - Norfolk/Wakefld, Virginia, USA
Distance from station: SE 47mi, 75km
Updated: Sat, 20-Apr-2024 9:54pm EDT
Clear
Clear
 Wind from calm
Wind: Calm
Temperature: 59°F , 15°C
Dew Point: 55°F , 13°C
Humidity: 88%
Barometer: 29.95 inHg , 1014.2 hPa
Clouds: Clear
Visibility: 10 miles , 16 km
2024/04/21 01:54 KAKQ 210154Z AUTO 00000KT 10SM CLR 15/13 A2995 RMK AO2 SLP144 T01500128
KFYJ - West Point, Virginia, USA
Distance from station: E 48mi, 78km
Updated: Sat, 20-Apr-2024 9:55pm EDT
Clear
Clear
 Wind from calm
Wind: Calm
Temperature: 55°F , 13°C
Dew Point: 52°F , 11°C
Humidity: 88%
Barometer: 29.95 inHg , 1014.2 hPa
Clouds: Clear
Visibility: 10 miles , 16 km
2024/04/21 01:55 KFYJ 210155Z AUTO 00000KT 10SM CLR 13/11 A2995 RMK AO1 T01310110